Skip to main content

Reguengos, S. P. do Corval

ID 1210840 · 38.4849, -7.4729 map

Latest reading · 2026-05-09 19:00 (Europe/Lisbon)

Temperature
18.2 °C
Humidity
55 %
Pressure
Precipitation
0.0 mm
Radiation
783 W/m²
Wind speed
22.7 km/h
Wind direction
SW · South-west

24-hour history

Time (Europe/Lisbon) Temp Humidity Pressure Rain Wind Dir
2026-05-09 19:00 18.2 °C 55 % 0.0 mm 22.7 km/h SW
2026-05-09 18:00 17.9 °C 70 % 0.0 mm 22.0 km/h S
2026-05-09 17:00 17.6 °C 78 % 0.1 mm 20.9 km/h S
2026-05-09 16:00 16.7 °C 75 % 1.4 mm 14.8 km/h S
2026-05-09 15:00 20.5 °C 46 % 0.0 mm 22.0 km/h SW
2026-05-09 14:00 19.5 °C 52 % 0.0 mm 25.6 km/h SW
2026-05-09 13:00 18.4 °C 60 % 0.0 mm 23.4 km/h SW
2026-05-09 12:00 17.0 °C 74 % 0.0 mm 23.4 km/h SW
2026-05-09 11:00 15.8 °C 86 % 0.1 mm 28.8 km/h S
2026-05-09 10:00 14.5 °C 94 % 0.0 mm 19.1 km/h SE
2026-05-09 09:00 13.5 °C 97 % 0.0 mm 15.8 km/h SE
2026-05-09 08:00 12.6 °C 98 % 1.0 mm 9.7 km/h SE
2026-05-09 07:00 12.0 °C 96 % 3.1 mm 8.6 km/h SE
2026-05-09 06:00 11.9 °C 94 % 0.0 mm 8.3 km/h E
2026-05-09 05:00 12.1 °C 95 % 2.9 mm 13.0 km/h SE
2026-05-09 04:00 13.2 °C 87 % 1.3 mm 19.8 km/h SE
2026-05-09 03:00 13.6 °C 86 % 0.0 mm 10.8 km/h SE
2026-05-09 02:00 13.3 °C 91 % 0.0 mm 11.5 km/h SE
2026-05-09 01:00 12.9 °C 90 % 0.4 mm 13.3 km/h SE
2026-05-09 00:00 14.5 °C 77 % 0.3 mm 14.8 km/h S
2026-05-08 23:00 16.0 °C 57 % 0.0 mm 19.8 km/h S
2026-05-08 22:00 16.4 °C 51 % 0.0 mm 15.1 km/h S
2026-05-08 21:00 17.7 °C 46 % 0.0 mm 16.2 km/h S
2026-05-08 20:00 19.1 °C 40 % 0.0 mm 19.1 km/h S